sensor_id;sensor_type;location;lat;lon;timestamp;P1;durP1;ratioP1;P2;durP2;ratioP2
47784;SDS011;35233;55.686;37.848;2024-03-25T00:02:09;5.95;;;3.80;;
47784;SDS011;35233;55.686;37.848;2024-03-25T00:04:35;5.32;;;3.50;;
47784;SDS011;35233;55.686;37.848;2024-03-25T00:07:01;5.25;;;3.50;;
47784;SDS011;35233;55.686;37.848;2024-03-25T00:09:27;6.00;;;3.30;;
47784;SDS011;35233;55.686;37.848;2024-03-25T00:11:53;5.05;;;3.72;;
47784;SDS011;35233;55.686;37.848;2024-03-25T00:14:22;4.63;;;3.55;;
47784;SDS011;35233;55.686;37.848;2024-03-25T00:16:48;4.75;;;3.63;;
47784;SDS011;35233;55.686;37.848;2024-03-25T00:19:14;4.03;;;3.03;;
47784;SDS011;35233;55.686;37.848;2024-03-25T00:21:40;4.07;;;3.03;;
47784;SDS011;35233;55.686;37.848;2024-03-25T00:24:07;4.35;;;2.78;;
47784;SDS011;35233;55.686;37.848;2024-03-25T00:26:32;4.45;;;3.05;;
47784;SDS011;35233;55.686;37.848;2024-03-25T00:28:58;3.88;;;2.80;;
47784;SDS011;35233;55.686;37.848;2024-03-25T00:31:24;3.35;;;2.60;;
47784;SDS011;35233;55.686;37.848;2024-03-25T00:33:49;4.32;;;2.72;;
47784;SDS011;35233;55.686;37.848;2024-03-25T00:36:15;4.22;;;3.13;;
47784;SDS011;35233;55.686;37.848;2024-03-25T00:38:41;3.53;;;2.58;;
47784;SDS011;35233;55.686;37.848;2024-03-25T00:41:06;3.78;;;2.75;;
47784;SDS011;35233;55.686;37.848;2024-03-25T00:43:32;3.60;;;2.60;;
47784;SDS011;35233;55.686;37.848;2024-03-25T00:45:58;3.17;;;2.47;;
47784;SDS011;35233;55.686;37.848;2024-03-25T00:48:24;3.67;;;2.85;;
47784;SDS011;35233;55.686;37.848;2024-03-25T00:50:49;3.20;;;2.45;;
47784;SDS011;35233;55.686;37.848;2024-03-25T00:53:15;3.58;;;2.38;;
47784;SDS011;35233;55.686;37.848;2024-03-25T00:55:41;3.03;;;2.40;;
47784;SDS011;35233;55.686;37.848;2024-03-25T00:58:07;3.67;;;2.35;;
47784;SDS011;35233;55.686;37.848;2024-03-25T01:00:32;3.25;;;2.28;;
47784;SDS011;35233;55.686;37.848;2024-03-25T01:02:58;2.92;;;2.20;;
47784;SDS011;35233;55.686;37.848;2024-03-25T01:05:23;3.85;;;2.72;;
47784;SDS011;35233;55.686;37.848;2024-03-25T01:07:49;2.38;;;2.00;;
47784;SDS011;35233;55.686;37.848;2024-03-25T01:10:15;2.38;;;1.90;;
47784;SDS011;35233;55.686;37.848;2024-03-25T01:12:41;2.83;;;1.90;;
47784;SDS011;35233;55.686;37.848;2024-03-25T01:15:07;3.38;;;2.25;;
47784;SDS011;35233;55.686;37.848;2024-03-25T01:17:35;3.38;;;2.20;;
47784;SDS011;35233;55.686;37.848;2024-03-25T01:20:03;2.95;;;1.98;;
47784;SDS011;35233;55.686;37.848;2024-03-25T01:22:30;2.33;;;1.85;;
47784;SDS011;35233;55.686;37.848;2024-03-25T01:24:56;2.95;;;2.08;;
47784;SDS011;35233;55.686;37.848;2024-03-25T01:27:22;2.10;;;1.77;;
47784;SDS011;35233;55.686;37.848;2024-03-25T01:29:48;2.10;;;1.80;;
47784;SDS011;35233;55.686;37.848;2024-03-25T01:32:13;2.53;;;1.83;;
47784;SDS011;35233;55.686;37.848;2024-03-25T01:34:39;2.13;;;1.60;;
47784;SDS011;35233;55.686;37.848;2024-03-25T01:37:05;2.60;;;1.80;;
47784;SDS011;35233;55.686;37.848;2024-03-25T01:39:30;1.92;;;1.67;;
47784;SDS011;35233;55.686;37.848;2024-03-25T01:41:56;2.35;;;1.58;;
47784;SDS011;35233;55.686;37.848;2024-03-25T01:44:22;1.98;;;1.42;;
47784;SDS011;35233;55.686;37.848;2024-03-25T01:46:47;2.08;;;1.63;;
47784;SDS011;35233;55.686;37.848;2024-03-25T01:49:13;2.05;;;1.67;;
47784;SDS011;35233;55.686;37.848;2024-03-25T01:51:39;1.85;;;1.60;;
47784;SDS011;35233;55.686;37.848;2024-03-25T01:54:05;1.63;;;1.40;;
47784;SDS011;35233;55.686;37.848;2024-03-25T01:56:32;2.38;;;1.45;;
47784;SDS011;35233;55.686;37.848;2024-03-25T01:59:00;2.10;;;1.50;;
47784;SDS011;35233;55.686;37.848;2024-03-25T02:01:26;1.98;;;1.50;;
47784;SDS011;35233;55.686;37.848;2024-03-25T02:03:54;1.90;;;1.50;;
47784;SDS011;35233;55.686;37.848;2024-03-25T02:06:20;2.25;;;1.70;;
47784;SDS011;35233;55.686;37.848;2024-03-25T02:08:47;2.92;;;1.35;;
47784;SDS011;35233;55.686;37.848;2024-03-25T02:11:14;3.40;;;1.73;;
47784;SDS011;35233;55.686;37.848;2024-03-25T02:13:40;2.08;;;1.70;;
47784;SDS011;35233;55.686;37.848;2024-03-25T02:16:06;1.63;;;1.45;;
47784;SDS011;35233;55.686;37.848;2024-03-25T02:18:32;1.63;;;1.20;;
47784;SDS011;35233;55.686;37.848;2024-03-25T02:20:58;1.80;;;1.40;;
47784;SDS011;35233;55.686;37.848;2024-03-25T02:23:25;1.60;;;1.33;;
47784;SDS011;35233;55.686;37.848;2024-03-25T02:25:51;1.88;;;1.30;;
47784;SDS011;35233;55.686;37.848;2024-03-25T02:28:18;3.35;;;1.48;;
47784;SDS011;35233;55.686;37.848;2024-03-25T02:30:44;1.48;;;1.20;;
47784;SDS011;35233;55.686;37.848;2024-03-25T02:33:10;1.15;;;1.05;;
47784;SDS011;35233;55.686;37.848;2024-03-25T02:35:36;1.10;;;0.90;;
47784;SDS011;35233;55.686;37.848;2024-03-25T02:38:04;1.38;;;1.27;;
47784;SDS011;35233;55.686;37.848;2024-03-25T02:40:31;1.98;;;1.30;;
47784;SDS011;35233;55.686;37.848;2024-03-25T02:42:57;1.20;;;1.10;;
47784;SDS011;35233;55.686;37.848;2024-03-25T02:45:23;2.75;;;1.20;;
47784;SDS011;35233;55.686;37.848;2024-03-25T02:47:49;1.23;;;1.10;;
47784;SDS011;35233;55.686;37.848;2024-03-25T02:50:15;1.48;;;1.30;;
47784;SDS011;35233;55.686;37.848;2024-03-25T02:52:41;1.20;;;1.10;;
47784;SDS011;35233;55.686;37.848;2024-03-25T02:55:07;1.15;;;1.00;;
47784;SDS011;35233;55.686;37.848;2024-03-25T02:57:32;1.75;;;1.20;;
47784;SDS011;35233;55.686;37.848;2024-03-25T02:59:58;1.20;;;0.98;;
47784;SDS011;35233;55.686;37.848;2024-03-25T03:02:23;1.20;;;1.02;;
47784;SDS011;35233;55.686;37.848;2024-03-25T03:04:49;1.23;;;1.13;;
47784;SDS011;35233;55.686;37.848;2024-03-25T03:07:14;1.73;;;1.20;;
47784;SDS011;35233;55.686;37.848;2024-03-25T03:09:40;0.75;;;0.70;;
47784;SDS011;35233;55.686;37.848;2024-03-25T03:12:06;1.25;;;0.95;;
47784;SDS011;35233;55.686;37.848;2024-03-25T03:14:31;1.00;;;1.00;;
47784;SDS011;35233;55.686;37.848;2024-03-25T03:16:57;5.57;;;1.02;;
47784;SDS011;35233;55.686;37.848;2024-03-25T03:19:26;1.02;;;0.93;;
47784;SDS011;35233;55.686;37.848;2024-03-25T03:21:52;1.10;;;1.00;;
47784;SDS011;35233;55.686;37.848;2024-03-25T03:24:18;1.17;;;0.80;;
47784;SDS011;35233;55.686;37.848;2024-03-25T03:26:44;1.10;;;0.90;;
47784;SDS011;35233;55.686;37.848;2024-03-25T03:29:10;2.40;;;1.13;;
47784;SDS011;35233;55.686;37.848;2024-03-25T03:31:35;1.45;;;0.90;;
47784;SDS011;35233;55.686;37.848;2024-03-25T03:34:01;0.77;;;0.70;;
47784;SDS011;35233;55.686;37.848;2024-03-25T03:36:27;0.85;;;0.82;;
47784;SDS011;35233;55.686;37.848;2024-03-25T03:38:53;1.10;;;0.98;;
47784;SDS011;35233;55.686;37.848;2024-03-25T03:41:19;0.63;;;0.63;;
47784;SDS011;35233;55.686;37.848;2024-03-25T03:43:45;0.85;;;0.80;;
47784;SDS011;35233;55.686;37.848;2024-03-25T03:46:11;1.17;;;0.93;;
47784;SDS011;35233;55.686;37.848;2024-03-25T03:48:36;0.82;;;0.80;;
47784;SDS011;35233;55.686;37.848;2024-03-25T03:51:04;0.93;;;0.80;;
47784;SDS011;35233;55.686;37.848;2024-03-25T03:53:30;1.00;;;0.90;;
47784;SDS011;35233;55.686;37.848;2024-03-25T03:55:58;1.13;;;1.02;;
47784;SDS011;35233;55.686;37.848;2024-03-25T03:58:24;1.00;;;0.90;;
47784;SDS011;35233;55.686;37.848;2024-03-25T04:00:51;1.23;;;0.90;;
47784;SDS011;35233;55.686;37.848;2024-03-25T04:03:17;1.20;;;0.88;;
47784;SDS011;35233;55.686;37.848;2024-03-25T04:05:44;0.68;;;0.60;;
47784;SDS011;35233;55.686;37.848;2024-03-25T04:08:10;2.88;;;1.23;;
47784;SDS011;35233;55.686;37.848;2024-03-25T04:10:35;0.80;;;0.80;;
47784;SDS011;35233;55.686;37.848;2024-03-25T04:13:05;1.00;;;0.90;;
47784;SDS011;35233;55.686;37.848;2024-03-25T04:15:34;1.58;;;0.80;;
47784;SDS011;35233;55.686;37.848;2024-03-25T04:18:03;1.10;;;1.00;;
47784;SDS011;35233;55.686;37.848;2024-03-25T04:20:30;0.70;;;0.70;;
47784;SDS011;35233;55.686;37.848;2024-03-25T04:23:02;1.02;;;0.80;;
47784;SDS011;35233;55.686;37.848;2024-03-25T04:25:27;1.00;;;0.90;;
47784;SDS011;35233;55.686;37.848;2024-03-25T04:27:53;0.63;;;0.60;;
47784;SDS011;35233;55.686;37.848;2024-03-25T04:30:19;0.93;;;0.80;;
47784;SDS011;35233;55.686;37.848;2024-03-25T04:32:44;0.93;;;0.88;;
47784;SDS011;35233;55.686;37.848;2024-03-25T04:35:10;0.63;;;0.63;;
47784;SDS011;35233;55.686;37.848;2024-03-25T04:37:36;0.93;;;0.80;;
47784;SDS011;35233;55.686;37.848;2024-03-25T04:40:02;1.13;;;0.90;;
47784;SDS011;35233;55.686;37.848;2024-03-25T04:42:28;1.30;;;0.88;;
47784;SDS011;35233;55.686;37.848;2024-03-25T04:44:54;0.98;;;0.80;;
47784;SDS011;35233;55.686;37.848;2024-03-25T04:47:19;0.55;;;0.55;;
47784;SDS011;35233;55.686;37.848;2024-03-25T04:49:45;0.73;;;0.70;;
47784;SDS011;35233;55.686;37.848;2024-03-25T04:52:11;0.60;;;0.55;;
47784;SDS011;35233;55.686;37.848;2024-03-25T04:54:43;3.35;;;1.80;;
47784;SDS011;35233;55.686;37.848;2024-03-25T04:57:09;6.20;;;2.50;;
47784;SDS011;35233;55.686;37.848;2024-03-25T04:59:35;4.53;;;2.53;;
47784;SDS011;35233;55.686;37.848;2024-03-25T05:02:01;5.90;;;2.80;;
47784;SDS011;35233;55.686;37.848;2024-03-25T05:04:26;7.65;;;2.90;;
47784;SDS011;35233;55.686;37.848;2024-03-25T05:06:53;7.78;;;3.60;;
47784;SDS011;35233;55.686;37.848;2024-03-25T05:09:18;6.70;;;3.67;;
47784;SDS011;35233;55.686;37.848;2024-03-25T05:11:46;5.95;;;3.33;;
47784;SDS011;35233;55.686;37.848;2024-03-25T05:14:12;5.45;;;3.28;;
47784;SDS011;35233;55.686;37.848;2024-03-25T05:16:37;5.93;;;3.60;;
47784;SDS011;35233;55.686;37.848;2024-03-25T05:19:03;5.72;;;3.45;;
47784;SDS011;35233;55.686;37.848;2024-03-25T05:21:30;5.55;;;3.95;;
47784;SDS011;35233;55.686;37.848;2024-03-25T05:23:56;6.28;;;3.67;;
47784;SDS011;35233;55.686;37.848;2024-03-25T05:26:21;7.30;;;4.05;;
47784;SDS011;35233;55.686;37.848;2024-03-25T05:28:51;6.85;;;4.28;;
47784;SDS011;35233;55.686;37.848;2024-03-25T05:31:18;6.05;;;3.90;;
47784;SDS011;35233;55.686;37.848;2024-03-25T05:33:43;6.50;;;4.22;;
47784;SDS011;35233;55.686;37.848;2024-03-25T05:36:09;6.63;;;3.80;;
47784;SDS011;35233;55.686;37.848;2024-03-25T05:38:34;6.32;;;3.83;;
47784;SDS011;35233;55.686;37.848;2024-03-25T05:41:00;6.50;;;3.88;;
47784;SDS011;35233;55.686;37.848;2024-03-25T05:43:26;6.60;;;4.38;;
47784;SDS011;35233;55.686;37.848;2024-03-25T05:45:52;6.35;;;3.75;;
47784;SDS011;35233;55.686;37.848;2024-03-25T05:48:18;6.07;;;3.92;;
47784;SDS011;35233;55.686;37.848;2024-03-25T05:50:44;7.28;;;3.88;;
47784;SDS011;35233;55.686;37.848;2024-03-25T05:53:11;5.40;;;3.63;;
47784;SDS011;35233;55.686;37.848;2024-03-25T05:55:36;6.60;;;3.88;;
47784;SDS011;35233;55.686;37.848;2024-03-25T05:58:02;5.75;;;3.80;;
47784;SDS011;35233;55.686;37.848;2024-03-25T06:00:32;6.07;;;3.90;;
47784;SDS011;35233;55.686;37.848;2024-03-25T06:02:58;7.45;;;4.30;;
47784;SDS011;35233;55.686;37.848;2024-03-25T06:05:24;9.05;;;4.03;;
47784;SDS011;35233;55.686;37.848;2024-03-25T06:07:49;7.03;;;4.68;;
47784;SDS011;35233;55.686;37.848;2024-03-25T06:10:15;6.90;;;4.65;;
47784;SDS011;35233;55.686;37.848;2024-03-25T06:12:40;6.78;;;4.22;;
47784;SDS011;35233;55.686;37.848;2024-03-25T06:15:06;9.10;;;4.22;;
47784;SDS011;35233;55.686;37.848;2024-03-25T06:17:32;7.03;;;4.43;;
47784;SDS011;35233;55.686;37.848;2024-03-25T06:19:58;6.50;;;4.30;;
47784;SDS011;35233;55.686;37.848;2024-03-25T06:22:24;8.15;;;4.78;;
47784;SDS011;35233;55.686;37.848;2024-03-25T06:24:49;7.15;;;4.88;;
47784;SDS011;35233;55.686;37.848;2024-03-25T06:27:15;8.27;;;5.13;;
47784;SDS011;35233;55.686;37.848;2024-03-25T06:29:41;8.45;;;4.93;;
47784;SDS011;35233;55.686;37.848;2024-03-25T06:32:08;7.63;;;5.07;;
47784;SDS011;35233;55.686;37.848;2024-03-25T06:34:53;7.27;;;4.80;;
47784;SDS011;35233;55.686;37.848;2024-03-25T06:37:18;8.27;;;4.75;;
47784;SDS011;35233;55.686;37.848;2024-03-25T06:39:44;8.88;;;5.53;;
47784;SDS011;35233;55.686;37.848;2024-03-25T06:42:09;8.02;;;5.28;;
47784;SDS011;35233;55.686;37.848;2024-03-25T06:44:35;9.80;;;5.60;;
47784;SDS011;35233;55.686;37.848;2024-03-25T06:47:01;8.20;;;6.13;;
47784;SDS011;35233;55.686;37.848;2024-03-25T06:49:27;9.00;;;5.72;;
47784;SDS011;35233;55.686;37.848;2024-03-25T06:51:53;10.60;;;6.38;;
47784;SDS011;35233;55.686;37.848;2024-03-25T06:54:18;10.15;;;7.22;;
47784;SDS011;35233;55.686;37.848;2024-03-25T06:56:44;8.45;;;6.55;;
47784;SDS011;35233;55.686;37.848;2024-03-25T06:59:09;9.82;;;6.95;;
47784;SDS011;35233;55.686;37.848;2024-03-25T07:01:35;11.23;;;6.60;;
47784;SDS011;35233;55.686;37.848;2024-03-25T07:04:01;9.05;;;6.25;;
47784;SDS011;35233;55.686;37.848;2024-03-25T07:06:26;9.40;;;6.10;;
47784;SDS011;35233;55.686;37.848;2024-03-25T07:08:52;9.27;;;6.75;;
47784;SDS011;35233;55.686;37.848;2024-03-25T07:11:18;8.45;;;6.25;;
47784;SDS011;35233;55.686;37.848;2024-03-25T07:13:44;9.73;;;6.30;;
47784;SDS011;35233;55.686;37.848;2024-03-25T07:16:10;9.43;;;6.03;;
47784;SDS011;35233;55.686;37.848;2024-03-25T07:18:35;8.32;;;6.00;;
47784;SDS011;35233;55.686;37.848;2024-03-25T07:21:01;8.32;;;5.97;;
47784;SDS011;35233;55.686;37.848;2024-03-25T07:23:27;9.23;;;6.18;;
47784;SDS011;35233;55.686;37.848;2024-03-25T07:25:52;8.70;;;5.57;;
47784;SDS011;35233;55.686;37.848;2024-03-25T07:28:18;7.60;;;5.35;;
47784;SDS011;35233;55.686;37.848;2024-03-25T07:30:44;8.88;;;5.72;;
47784;SDS011;35233;55.686;37.848;2024-03-25T07:33:10;7.72;;;5.55;;
47784;SDS011;35233;55.686;37.848;2024-03-25T07:35:35;7.05;;;5.10;;
47784;SDS011;35233;55.686;37.848;2024-03-25T07:38:01;6.95;;;5.68;;
47784;SDS011;35233;55.686;37.848;2024-03-25T07:40:28;7.32;;;5.00;;
47784;SDS011;35233;55.686;37.848;2024-03-25T07:42:54;6.47;;;4.82;;
47784;SDS011;35233;55.686;37.848;2024-03-25T07:45:19;6.68;;;5.00;;
47784;SDS011;35233;55.686;37.848;2024-03-25T07:47:45;7.03;;;5.10;;
47784;SDS011;35233;55.686;37.848;2024-03-25T07:50:11;7.55;;;5.22;;
47784;SDS011;35233;55.686;37.848;2024-03-25T07:52:37;7.72;;;4.43;;
47784;SDS011;35233;55.686;37.848;2024-03-25T07:55:08;8.27;;;4.72;;
47784;SDS011;35233;55.686;37.848;2024-03-25T07:57:34;6.28;;;4.68;;
47784;SDS011;35233;55.686;37.848;2024-03-25T08:00:00;6.45;;;4.35;;
47784;SDS011;35233;55.686;37.848;2024-03-25T08:02:25;7.43;;;4.30;;
47784;SDS011;35233;55.686;37.848;2024-03-25T08:04:51;6.93;;;4.22;;
47784;SDS011;35233;55.686;37.848;2024-03-25T08:07:17;6.68;;;4.40;;
47784;SDS011;35233;55.686;37.848;2024-03-25T08:09:42;7.05;;;4.43;;
47784;SDS011;35233;55.686;37.848;2024-03-25T08:12:08;5.80;;;4.28;;
47784;SDS011;35233;55.686;37.848;2024-03-25T08:14:33;6.03;;;4.25;;
47784;SDS011;35233;55.686;37.848;2024-03-25T08:16:59;7.53;;;3.90;;
47784;SDS011;35233;55.686;37.848;2024-03-25T08:19:25;5.60;;;4.07;;
47784;SDS011;35233;55.686;37.848;2024-03-25T08:21:50;5.20;;;4.00;;
47784;SDS011;35233;55.686;37.848;2024-03-25T08:24:16;5.60;;;3.75;;
47784;SDS011;35233;55.686;37.848;2024-03-25T08:26:41;5.95;;;3.70;;
47784;SDS011;35233;55.686;37.848;2024-03-25T08:29:07;5.32;;;3.67;;
47784;SDS011;35233;55.686;37.848;2024-03-25T08:31:33;5.50;;;3.65;;
47784;SDS011;35233;55.686;37.848;2024-03-25T08:33:58;5.47;;;3.60;;
47784;SDS011;35233;55.686;37.848;2024-03-25T08:36:24;6.22;;;3.70;;
47784;SDS011;35233;55.686;37.848;2024-03-25T08:38:50;5.40;;;4.00;;
47784;SDS011;35233;55.686;37.848;2024-03-25T08:41:15;4.22;;;3.25;;
47784;SDS011;35233;55.686;37.848;2024-03-25T08:43:41;4.88;;;3.65;;
47784;SDS011;35233;55.686;37.848;2024-03-25T08:46:07;5.97;;;3.50;;
47784;SDS011;35233;55.686;37.848;2024-03-25T08:48:32;5.43;;;3.50;;
47784;SDS011;35233;55.686;37.848;2024-03-25T08:50:58;5.13;;;3.53;;
47784;SDS011;35233;55.686;37.848;2024-03-25T08:53:23;5.78;;;3.47;;
47784;SDS011;35233;55.686;37.848;2024-03-25T08:55:49;4.80;;;3.20;;
47784;SDS011;35233;55.686;37.848;2024-03-25T08:58:15;5.43;;;3.30;;
47784;SDS011;35233;55.686;37.848;2024-03-25T09:00:41;5.38;;;3.22;;
47784;SDS011;35233;55.686;37.848;2024-03-25T09:03:08;5.60;;;3.25;;
47784;SDS011;35233;55.686;37.848;2024-03-25T09:05:43;4.72;;;3.33;;
47784;SDS011;35233;55.686;37.848;2024-03-25T09:08:09;4.35;;;3.20;;
47784;SDS011;35233;55.686;37.848;2024-03-25T09:10:44;5.45;;;3.10;;
47784;SDS011;35233;55.686;37.848;2024-03-25T09:13:32;3.97;;;2.88;;
47784;SDS011;35233;55.686;37.848;2024-03-25T09:15:58;3.72;;;2.80;;
47784;SDS011;35233;55.686;37.848;2024-03-25T09:18:23;4.68;;;2.95;;
47784;SDS011;35233;55.686;37.848;2024-03-25T09:20:49;4.18;;;2.78;;
47784;SDS011;35233;55.686;37.848;2024-03-25T09:23:15;4.63;;;3.13;;
47784;SDS011;35233;55.686;37.848;2024-03-25T09:25:50;4.72;;;2.85;;
47784;SDS011;35233;55.686;37.848;2024-03-25T09:28:18;3.80;;;2.63;;
47784;SDS011;35233;55.686;37.848;2024-03-25T09:30:44;4.22;;;2.78;;
47784;SDS011;35233;55.686;37.848;2024-03-25T09:33:10;4.50;;;2.92;;
47784;SDS011;35233;55.686;37.848;2024-03-25T09:35:35;5.28;;;2.83;;
47784;SDS011;35233;55.686;37.848;2024-03-25T09:38:02;4.18;;;2.83;;
47784;SDS011;35233;55.686;37.848;2024-03-25T09:40:28;4.43;;;2.85;;
47784;SDS011;35233;55.686;37.848;2024-03-25T09:43:08;4.40;;;2.75;;
47784;SDS011;35233;55.686;37.848;2024-03-25T09:46:00;4.28;;;2.65;;
47784;SDS011;35233;55.686;37.848;2024-03-25T09:48:27;3.78;;;2.60;;
47784;SDS011;35233;55.686;37.848;2024-03-25T09:51:10;4.03;;;2.70;;
47784;SDS011;35233;55.686;37.848;2024-03-25T09:53:36;5.57;;;2.63;;
47784;SDS011;35233;55.686;37.848;2024-03-25T09:56:05;3.92;;;2.63;;
47784;SDS011;35233;55.686;37.848;2024-03-25T09:58:34;3.35;;;2.40;;
47784;SDS011;35233;55.686;37.848;2024-03-25T10:01:10;3.90;;;2.67;;
47784;SDS011;35233;55.686;37.848;2024-03-25T10:03:36;4.68;;;2.70;;
47784;SDS011;35233;55.686;37.848;2024-03-25T10:06:02;3.08;;;2.60;;
47784;SDS011;35233;55.686;37.848;2024-03-25T10:08:28;3.80;;;2.47;;
47784;SDS011;35233;55.686;37.848;2024-03-25T10:11:14;3.03;;;2.25;;
47784;SDS011;35233;55.686;37.848;2024-03-25T10:16:31;3.75;;;2.53;;
47784;SDS011;35233;55.686;37.848;2024-03-25T10:18:56;3.72;;;2.28;;
47784;SDS011;35233;55.686;37.848;2024-03-25T10:21:25;3.25;;;2.47;;
47784;SDS011;35233;55.686;37.848;2024-03-25T10:24:05;3.47;;;2.40;;
47784;SDS011;35233;55.686;37.848;2024-03-25T10:26:44;3.47;;;2.30;;
47784;SDS011;35233;55.686;37.848;2024-03-25T10:29:14;3.42;;;2.38;;
47784;SDS011;35233;55.686;37.848;2024-03-25T10:31:40;3.72;;;2.40;;
47784;SDS011;35233;55.686;37.848;2024-03-25T10:34:06;3.63;;;2.45;;
47784;SDS011;35233;55.686;37.848;2024-03-25T10:36:42;4.07;;;2.67;;
47784;SDS011;35233;55.686;37.848;2024-03-25T10:39:14;4.53;;;2.42;;
47784;SDS011;35233;55.686;37.848;2024-03-25T10:41:49;3.53;;;2.45;;
47784;SDS011;35233;55.686;37.848;2024-03-25T10:44:15;4.03;;;2.20;;
47784;SDS011;35233;55.686;37.848;2024-03-25T10:46:41;3.92;;;2.42;;
47784;SDS011;35233;55.686;37.848;2024-03-25T10:49:20;3.55;;;2.30;;
47784;SDS011;35233;55.686;37.848;2024-03-25T10:51:52;4.40;;;3.20;;
47784;SDS011;35233;55.686;37.848;2024-03-25T10:54:19;6.50;;;4.70;;
47784;SDS011;35233;55.686;37.848;2024-03-25T10:56:47;7.35;;;5.78;;
47784;SDS011;35233;55.686;37.848;2024-03-25T10:59:16;10.18;;;7.35;;
47784;SDS011;35233;55.686;37.848;2024-03-25T11:01:45;9.23;;;7.45;;
47784;SDS011;35233;55.686;37.848;2024-03-25T11:04:11;10.70;;;8.27;;
47784;SDS011;35233;55.686;37.848;2024-03-25T11:06:40;10.88;;;8.70;;
47784;SDS011;35233;55.686;37.848;2024-03-25T11:09:06;11.43;;;9.00;;
47784;SDS011;35233;55.686;37.848;2024-03-25T11:11:32;10.23;;;8.15;;
47784;SDS011;35233;55.686;37.848;2024-03-25T11:13:58;11.85;;;8.57;;
47784;SDS011;35233;55.686;37.848;2024-03-25T11:16:31;10.23;;;7.75;;
47784;SDS011;35233;55.686;37.848;2024-03-25T11:19:03;9.77;;;7.85;;
47784;SDS011;35233;55.686;37.848;2024-03-25T11:21:31;10.52;;;8.10;;
47784;SDS011;35233;55.686;37.848;2024-03-25T11:24:05;9.85;;;7.85;;
47784;SDS011;35233;55.686;37.848;2024-03-25T11:26:32;9.10;;;7.60;;
47784;SDS011;35233;55.686;37.848;2024-03-25T11:29:00;8.50;;;7.25;;
47784;SDS011;35233;55.686;37.848;2024-03-25T11:31:27;8.80;;;7.32;;
47784;SDS011;35233;55.686;37.848;2024-03-25T11:33:53;8.98;;;7.25;;
47784;SDS011;35233;55.686;37.848;2024-03-25T11:36:20;9.70;;;7.35;;
47784;SDS011;35233;55.686;37.848;2024-03-25T11:39:04;8.88;;;6.70;;
47784;SDS011;35233;55.686;37.848;2024-03-25T11:41:34;8.23;;;6.68;;
47784;SDS011;35233;55.686;37.848;2024-03-25T11:44:05;9.02;;;7.20;;
47784;SDS011;35233;55.686;37.848;2024-03-25T11:47:19;9.32;;;6.88;;
47784;SDS011;35233;55.686;37.848;2024-03-25T11:49:46;8.82;;;6.70;;
47784;SDS011;35233;55.686;37.848;2024-03-25T11:52:15;7.78;;;6.55;;
47784;SDS011;35233;55.686;37.848;2024-03-25T11:54:41;8.85;;;6.63;;
47784;SDS011;35233;55.686;37.848;2024-03-25T11:57:07;8.50;;;6.70;;
47784;SDS011;35233;55.686;37.848;2024-03-25T11:59:34;7.78;;;6.20;;
47784;SDS011;35233;55.686;37.848;2024-03-25T12:01:59;7.82;;;5.95;;
47784;SDS011;35233;55.686;37.848;2024-03-25T12:04:25;7.70;;;6.00;;
47784;SDS011;35233;55.686;37.848;2024-03-25T12:06:55;7.22;;;5.95;;
47784;SDS011;35233;55.686;37.848;2024-03-25T12:09:22;7.80;;;6.32;;
47784;SDS011;35233;55.686;37.848;2024-03-25T12:12:06;8.50;;;5.70;;
47784;SDS011;35233;55.686;37.848;2024-03-25T12:14:33;9.25;;;6.10;;
47784;SDS011;35233;55.686;37.848;2024-03-25T12:16:59;6.78;;;5.20;;
47784;SDS011;35233;55.686;37.848;2024-03-25T12:19:25;8.65;;;5.93;;
47784;SDS011;35233;55.686;37.848;2024-03-25T12:21:50;7.28;;;5.47;;
47784;SDS011;35233;55.686;37.848;2024-03-25T12:24:24;6.15;;;5.20;;
47784;SDS011;35233;55.686;37.848;2024-03-25T12:26:50;7.80;;;5.70;;
47784;SDS011;35233;55.686;37.848;2024-03-25T12:29:16;7.82;;;6.05;;
47784;SDS011;35233;55.686;37.848;2024-03-25T12:31:42;6.85;;;5.40;;
47784;SDS011;35233;55.686;37.848;2024-03-25T12:34:12;7.53;;;5.43;;
47784;SDS011;35233;55.686;37.848;2024-03-25T12:36:38;6.28;;;5.53;;
47784;SDS011;35233;55.686;37.848;2024-03-25T12:39:04;8.40;;;5.68;;
47784;SDS011;35233;55.686;37.848;2024-03-25T12:41:29;7.85;;;5.13;;
47784;SDS011;35233;55.686;37.848;2024-03-25T12:43:56;6.50;;;4.97;;
47784;SDS011;35233;55.686;37.848;2024-03-25T12:46:22;7.85;;;5.35;;
47784;SDS011;35233;55.686;37.848;2024-03-25T12:48:47;7.25;;;5.40;;
47784;SDS011;35233;55.686;37.848;2024-03-25T12:51:16;6.50;;;5.07;;
47784;SDS011;35233;55.686;37.848;2024-03-25T12:53:41;6.72;;;5.00;;
47784;SDS011;35233;55.686;37.848;2024-03-25T12:56:07;6.85;;;5.10;;
47784;SDS011;35233;55.686;37.848;2024-03-25T12:58:33;7.40;;;5.38;;
47784;SDS011;35233;55.686;37.848;2024-03-25T13:00:59;7.82;;;6.15;;
47784;SDS011;35233;55.686;37.848;2024-03-25T13:03:25;7.50;;;6.13;;
47784;SDS011;35233;55.686;37.848;2024-03-25T13:05:51;7.75;;;6.45;;
47784;SDS011;35233;55.686;37.848;2024-03-25T13:08:16;7.80;;;6.30;;
47784;SDS011;35233;55.686;37.848;2024-03-25T13:10:42;7.75;;;6.30;;
47784;SDS011;35233;55.686;37.848;2024-03-25T13:13:08;8.93;;;6.70;;
47784;SDS011;35233;55.686;37.848;2024-03-25T13:15:42;8.25;;;6.45;;
47784;SDS011;35233;55.686;37.848;2024-03-25T13:18:08;8.40;;;6.28;;
47784;SDS011;35233;55.686;37.848;2024-03-25T13:20:36;8.95;;;6.82;;
47784;SDS011;35233;55.686;37.848;2024-03-25T13:23:11;7.97;;;6.25;;
47784;SDS011;35233;55.686;37.848;2024-03-25T13:25:37;9.40;;;6.65;;
47784;SDS011;35233;55.686;37.848;2024-03-25T13:28:06;8.40;;;6.50;;
47784;SDS011;35233;55.686;37.848;2024-03-25T13:30:32;8.18;;;6.18;;
47784;SDS011;35233;55.686;37.848;2024-03-25T13:32:58;8.30;;;6.47;;
47784;SDS011;35233;55.686;37.848;2024-03-25T13:35:24;8.43;;;6.93;;
47784;SDS011;35233;55.686;37.848;2024-03-25T13:37:49;8.32;;;6.28;;
47784;SDS011;35233;55.686;37.848;2024-03-25T13:40:15;9.15;;;6.50;;
47784;SDS011;35233;55.686;37.848;2024-03-25T13:42:41;8.02;;;6.32;;
47784;SDS011;35233;55.686;37.848;2024-03-25T13:45:06;8.57;;;6.63;;
47784;SDS011;35233;55.686;37.848;2024-03-25T13:47:32;8.85;;;7.30;;
47784;SDS011;35233;55.686;37.848;2024-03-25T13:50:04;7.72;;;6.63;;
47784;SDS011;35233;55.686;37.848;2024-03-25T13:52:46;8.93;;;6.95;;
47784;SDS011;35233;55.686;37.848;2024-03-25T13:55:15;8.48;;;6.93;;
47784;SDS011;35233;55.686;37.848;2024-03-25T13:57:49;10.32;;;8.02;;
47784;SDS011;35233;55.686;37.848;2024-03-25T14:00:15;9.55;;;7.55;;
47784;SDS011;35233;55.686;37.848;2024-03-25T14:02:41;9.88;;;8.05;;
47784;SDS011;35233;55.686;37.848;2024-03-25T14:05:06;9.30;;;7.70;;
47784;SDS011;35233;55.686;37.848;2024-03-25T14:07:32;10.90;;;8.75;;
47784;SDS011;35233;55.686;37.848;2024-03-25T14:10:01;10.23;;;8.30;;
47784;SDS011;35233;55.686;37.848;2024-03-25T14:12:36;10.45;;;8.18;;
47784;SDS011;35233;55.686;37.848;2024-03-25T14:15:07;9.77;;;8.27;;
47784;SDS011;35233;55.686;37.848;2024-03-25T14:17:36;10.18;;;8.57;;
47784;SDS011;35233;55.686;37.848;2024-03-25T14:20:02;12.05;;;9.13;;
47784;SDS011;35233;55.686;37.848;2024-03-25T14:22:31;11.70;;;9.52;;
47784;SDS011;35233;55.686;37.848;2024-03-25T14:24:57;10.88;;;8.80;;
47784;SDS011;35233;55.686;37.848;2024-03-25T14:27:25;10.15;;;8.55;;
47784;SDS011;35233;55.686;37.848;2024-03-25T14:29:51;10.60;;;8.95;;
47784;SDS011;35233;55.686;37.848;2024-03-25T14:32:21;9.80;;;8.80;;
47784;SDS011;35233;55.686;37.848;2024-03-25T14:34:47;9.85;;;8.57;;
47784;SDS011;35233;55.686;37.848;2024-03-25T14:37:14;11.57;;;9.13;;